sensor_id;sensor_type;location;lat;lon;timestamp;P1;durP1;ratioP1;P2;durP2;ratioP2
54123;SDS011;55741;53.252;5.788;2023-02-28T00:01:09;11.88;;;2.90;;
54123;SDS011;55741;53.252;5.788;2023-02-28T00:03:36;8.68;;;2.35;;
54123;SDS011;55741;53.252;5.788;2023-02-28T00:06:03;9.82;;;2.55;;
54123;SDS011;55741;53.252;5.788;2023-02-28T00:08:32;10.45;;;2.90;;
54123;SDS011;55741;53.252;5.788;2023-02-28T00:11:02;9.75;;;2.53;;
54123;SDS011;55741;53.252;5.788;2023-02-28T00:13:29;9.90;;;2.50;;
54123;SDS011;55741;53.252;5.788;2023-02-28T00:15:59;10.68;;;2.92;;
54123;SDS011;55741;53.252;5.788;2023-02-28T00:18:27;11.93;;;2.88;;
54123;SDS011;55741;53.252;5.788;2023-02-28T00:20:53;8.00;;;2.78;;
54123;SDS011;55741;53.252;5.788;2023-02-28T00:23:19;8.25;;;2.70;;
54123;SDS011;55741;53.252;5.788;2023-02-28T00:25:45;10.93;;;2.92;;
54123;SDS011;55741;53.252;5.788;2023-02-28T00:28:11;13.50;;;2.80;;
54123;SDS011;55741;53.252;5.788;2023-02-28T00:30:36;14.15;;;2.90;;
54123;SDS011;55741;53.252;5.788;2023-02-28T00:33:02;10.20;;;2.58;;
54123;SDS011;55741;53.252;5.788;2023-02-28T00:35:28;10.68;;;2.35;;
54123;SDS011;55741;53.252;5.788;2023-02-28T00:37:54;7.25;;;2.95;;
54123;SDS011;55741;53.252;5.788;2023-02-28T00:40:20;9.60;;;2.70;;
54123;SDS011;55741;53.252;5.788;2023-02-28T00:42:46;12.35;;;2.85;;
54123;SDS011;55741;53.252;5.788;2023-02-28T00:45:12;9.70;;;2.67;;
54123;SDS011;55741;53.252;5.788;2023-02-28T00:47:38;13.10;;;3.25;;
54123;SDS011;55741;53.252;5.788;2023-02-28T00:50:04;10.57;;;2.72;;
54123;SDS011;55741;53.252;5.788;2023-02-28T00:52:34;12.30;;;3.00;;
54123;SDS011;55741;53.252;5.788;2023-02-28T00:54:59;16.65;;;3.15;;
54123;SDS011;55741;53.252;5.788;2023-02-28T00:57:27;10.65;;;2.58;;
54123;SDS011;55741;53.252;5.788;2023-02-28T00:59:55;16.25;;;3.08;;
54123;SDS011;55741;53.252;5.788;2023-02-28T01:02:22;12.95;;;2.88;;
54123;SDS011;55741;53.252;5.788;2023-02-28T01:04:48;16.85;;;4.30;;
54123;SDS011;55741;53.252;5.788;2023-02-28T01:07:14;9.75;;;3.28;;
54123;SDS011;55741;53.252;5.788;2023-02-28T01:09:41;7.43;;;2.92;;
54123;SDS011;55741;53.252;5.788;2023-02-28T01:12:07;10.25;;;3.20;;
54123;SDS011;55741;53.252;5.788;2023-02-28T01:14:33;10.23;;;2.97;;
54123;SDS011;55741;53.252;5.788;2023-02-28T01:16:59;11.05;;;2.85;;
54123;SDS011;55741;53.252;5.788;2023-02-28T01:19:26;11.30;;;3.13;;
54123;SDS011;55741;53.252;5.788;2023-02-28T01:21:52;13.98;;;3.47;;
54123;SDS011;55741;53.252;5.788;2023-02-28T01:24:18;9.20;;;2.55;;
54123;SDS011;55741;53.252;5.788;2023-02-28T01:26:44;11.95;;;3.20;;
54123;SDS011;55741;53.252;5.788;2023-02-28T01:29:10;16.30;;;2.80;;
54123;SDS011;55741;53.252;5.788;2023-02-28T01:31:36;17.98;;;3.28;;
54123;SDS011;55741;53.252;5.788;2023-02-28T01:34:02;11.73;;;2.65;;
54123;SDS011;55741;53.252;5.788;2023-02-28T01:36:28;7.03;;;2.58;;
54123;SDS011;55741;53.252;5.788;2023-02-28T01:38:55;11.50;;;2.30;;
54123;SDS011;55741;53.252;5.788;2023-02-28T01:41:39;11.00;;;3.05;;
54123;SDS011;55741;53.252;5.788;2023-02-28T01:47:10;10.55;;;2.67;;
54123;SDS011;55741;53.252;5.788;2023-02-28T01:49:36;9.68;;;2.38;;
54123;SDS011;55741;53.252;5.788;2023-02-28T01:52:02;10.23;;;2.85;;
54123;SDS011;55741;53.252;5.788;2023-02-28T01:54:31;10.80;;;2.30;;
54123;SDS011;55741;53.252;5.788;2023-02-28T01:57:07;8.75;;;2.20;;
54123;SDS011;55741;53.252;5.788;2023-02-28T01:59:39;15.68;;;2.40;;
54123;SDS011;55741;53.252;5.788;2023-02-28T02:02:14;8.32;;;2.33;;
54123;SDS011;55741;53.252;5.788;2023-02-28T02:05:05;8.07;;;2.30;;
54123;SDS011;55741;53.252;5.788;2023-02-28T02:07:34;10.73;;;2.42;;
54123;SDS011;55741;53.252;5.788;2023-02-28T02:10:10;9.15;;;2.28;;
54123;SDS011;55741;53.252;5.788;2023-02-28T02:12:52;8.93;;;2.05;;
54123;SDS011;55741;53.252;5.788;2023-02-28T02:15:32;10.13;;;2.10;;
54123;SDS011;55741;53.252;5.788;2023-02-28T02:18:13;11.77;;;2.20;;
54123;SDS011;55741;53.252;5.788;2023-02-28T02:23:33;8.68;;;2.35;;
54123;SDS011;55741;53.252;5.788;2023-02-28T02:39:59;7.75;;;2.05;;
54123;SDS011;55741;53.252;5.788;2023-02-28T02:42:51;7.53;;;2.33;;
54123;SDS011;55741;53.252;5.788;2023-02-28T02:45:19;7.00;;;2.30;;
54123;SDS011;55741;53.252;5.788;2023-02-28T02:47:51;9.25;;;2.67;;
54123;SDS011;55741;53.252;5.788;2023-02-28T02:50:20;10.18;;;2.65;;
54123;SDS011;55741;53.252;5.788;2023-02-28T02:52:52;11.20;;;3.08;;
54123;SDS011;55741;53.252;5.788;2023-02-28T02:55:23;12.82;;;3.22;;
54123;SDS011;55741;53.252;5.788;2023-02-28T02:57:52;12.13;;;3.13;;
54123;SDS011;55741;53.252;5.788;2023-02-28T03:00:23;8.63;;;2.92;;
54123;SDS011;55741;53.252;5.788;2023-02-28T03:02:55;7.40;;;2.70;;
54123;SDS011;55741;53.252;5.788;2023-02-28T03:05:30;12.32;;;3.17;;
54123;SDS011;55741;53.252;5.788;2023-02-28T03:08:03;12.50;;;3.10;;
54123;SDS011;55741;53.252;5.788;2023-02-28T03:10:37;16.38;;;2.60;;
54123;SDS011;55741;53.252;5.788;2023-02-28T03:19:34;15.73;;;2.67;;
54123;SDS011;55741;53.252;5.788;2023-02-28T03:21:48;14.32;;;3.25;;
54123;SDS011;55741;53.252;5.788;2023-02-28T03:35:48;11.02;;;2.72;;
54123;SDS011;55741;53.252;5.788;2023-02-28T03:38:37;10.55;;;2.38;;
54123;SDS011;55741;53.252;5.788;2023-02-28T03:41:12;15.23;;;2.65;;
54123;SDS011;55741;53.252;5.788;2023-02-28T03:43:43;12.70;;;2.33;;
54123;SDS011;55741;53.252;5.788;2023-02-28T03:46:14;15.38;;;2.65;;
54123;SDS011;55741;53.252;5.788;2023-02-28T03:51:24;11.52;;;2.40;;
54123;SDS011;55741;53.252;5.788;2023-02-28T03:53:56;15.38;;;2.97;;
54123;SDS011;55741;53.252;5.788;2023-02-28T03:56:31;16.52;;;2.97;;
54123;SDS011;55741;53.252;5.788;2023-02-28T04:01:48;7.32;;;2.20;;
54123;SDS011;55741;53.252;5.788;2023-02-28T04:04:15;5.80;;;1.92;;
54123;SDS011;55741;53.252;5.788;2023-02-28T04:06:42;14.13;;;2.60;;
54123;SDS011;55741;53.252;5.788;2023-02-28T04:09:09;9.15;;;1.83;;
54123;SDS011;55741;53.252;5.788;2023-02-28T04:11:38;10.10;;;2.03;;
54123;SDS011;55741;53.252;5.788;2023-02-28T04:14:06;12.10;;;2.03;;
54123;SDS011;55741;53.252;5.788;2023-02-28T04:16:33;11.52;;;2.17;;
54123;SDS011;55741;53.252;5.788;2023-02-28T04:19:04;12.52;;;2.03;;
54123;SDS011;55741;53.252;5.788;2023-02-28T04:21:32;11.27;;;2.22;;
54123;SDS011;55741;53.252;5.788;2023-02-28T04:24:00;9.40;;;1.70;;
54123;SDS011;55741;53.252;5.788;2023-02-28T04:26:33;10.10;;;1.52;;
54123;SDS011;55741;53.252;5.788;2023-02-28T04:29:01;8.70;;;1.90;;
54123;SDS011;55741;53.252;5.788;2023-02-28T04:31:28;10.30;;;1.75;;
54123;SDS011;55741;53.252;5.788;2023-02-28T04:33:54;6.50;;;1.63;;
54123;SDS011;55741;53.252;5.788;2023-02-28T04:36:20;10.90;;;2.90;;
54123;SDS011;55741;53.252;5.788;2023-02-28T04:38:48;6.40;;;1.83;;
54123;SDS011;55741;53.252;5.788;2023-02-28T04:41:14;7.35;;;2.00;;
54123;SDS011;55741;53.252;5.788;2023-02-28T04:43:41;13.48;;;2.47;;
54123;SDS011;55741;53.252;5.788;2023-02-28T04:46:07;14.30;;;2.42;;
54123;SDS011;55741;53.252;5.788;2023-02-28T04:48:35;13.55;;;2.80;;
54123;SDS011;55741;53.252;5.788;2023-02-28T04:51:07;10.45;;;2.05;;
54123;SDS011;55741;53.252;5.788;2023-02-28T04:53:35;14.60;;;2.30;;
54123;SDS011;55741;53.252;5.788;2023-02-28T04:56:02;13.18;;;2.03;;
54123;SDS011;55741;53.252;5.788;2023-02-28T04:58:31;8.52;;;2.10;;
54123;SDS011;55741;53.252;5.788;2023-02-28T05:01:04;11.85;;;2.50;;
54123;SDS011;55741;53.252;5.788;2023-02-28T05:03:38;14.25;;;2.13;;
54123;SDS011;55741;53.252;5.788;2023-02-28T05:06:08;8.02;;;1.92;;
54123;SDS011;55741;53.252;5.788;2023-02-28T05:08:35;11.07;;;2.10;;
54123;SDS011;55741;53.252;5.788;2023-02-28T05:11:01;14.65;;;2.03;;
54123;SDS011;55741;53.252;5.788;2023-02-28T05:13:28;9.63;;;2.42;;
54123;SDS011;55741;53.252;5.788;2023-02-28T05:15:55;13.32;;;2.08;;
54123;SDS011;55741;53.252;5.788;2023-02-28T05:18:21;14.90;;;2.33;;
54123;SDS011;55741;53.252;5.788;2023-02-28T05:20:47;11.23;;;2.10;;
54123;SDS011;55741;53.252;5.788;2023-02-28T05:23:14;12.82;;;2.45;;
54123;SDS011;55741;53.252;5.788;2023-02-28T05:25:48;7.93;;;1.85;;
54123;SDS011;55741;53.252;5.788;2023-02-28T05:28:16;12.35;;;1.95;;
54123;SDS011;55741;53.252;5.788;2023-02-28T05:30:41;11.40;;;1.83;;
54123;SDS011;55741;53.252;5.788;2023-02-28T05:33:10;9.05;;;1.92;;
54123;SDS011;55741;53.252;5.788;2023-02-28T05:35:40;12.98;;;2.22;;
54123;SDS011;55741;53.252;5.788;2023-02-28T05:38:08;10.75;;;1.73;;
54123;SDS011;55741;53.252;5.788;2023-02-28T05:40:35;13.25;;;2.15;;
54123;SDS011;55741;53.252;5.788;2023-02-28T05:43:04;14.85;;;2.03;;
54123;SDS011;55741;53.252;5.788;2023-02-28T05:45:30;9.57;;;2.00;;
54123;SDS011;55741;53.252;5.788;2023-02-28T05:47:56;14.80;;;2.53;;
54123;SDS011;55741;53.252;5.788;2023-02-28T05:50:22;15.77;;;3.00;;
54123;SDS011;55741;53.252;5.788;2023-02-28T05:52:51;9.60;;;2.30;;
54123;SDS011;55741;53.252;5.788;2023-02-28T05:55:17;15.57;;;2.28;;
54123;SDS011;55741;53.252;5.788;2023-02-28T05:57:43;16.33;;;2.90;;
54123;SDS011;55741;53.252;5.788;2023-02-28T06:00:11;16.67;;;2.65;;
54123;SDS011;55741;53.252;5.788;2023-02-28T06:02:40;14.32;;;2.03;;
54123;SDS011;55741;53.252;5.788;2023-02-28T06:05:08;10.98;;;2.35;;
54123;SDS011;55741;53.252;5.788;2023-02-28T06:07:39;14.50;;;2.67;;
54123;SDS011;55741;53.252;5.788;2023-02-28T06:10:07;11.48;;;2.35;;
54123;SDS011;55741;53.252;5.788;2023-02-28T06:12:34;9.82;;;2.20;;
54123;SDS011;55741;53.252;5.788;2023-02-28T06:15:00;12.90;;;2.75;;
54123;SDS011;55741;53.252;5.788;2023-02-28T06:17:26;12.73;;;2.30;;
54123;SDS011;55741;53.252;5.788;2023-02-28T06:19:52;13.05;;;2.63;;
54123;SDS011;55741;53.252;5.788;2023-02-28T06:22:18;15.68;;;3.22;;
54123;SDS011;55741;53.252;5.788;2023-02-28T06:24:44;13.23;;;2.60;;
54123;SDS011;55741;53.252;5.788;2023-02-28T06:27:10;14.93;;;2.63;;
54123;SDS011;55741;53.252;5.788;2023-02-28T06:29:36;12.35;;;2.63;;
54123;SDS011;55741;53.252;5.788;2023-02-28T06:32:05;17.13;;;3.00;;
54123;SDS011;55741;53.252;5.788;2023-02-28T06:34:33;12.90;;;2.50;;
54123;SDS011;55741;53.252;5.788;2023-02-28T06:36:59;16.95;;;3.00;;
54123;SDS011;55741;53.252;5.788;2023-02-28T06:39:28;9.18;;;5.28;;
54123;SDS011;55741;53.252;5.788;2023-02-28T06:41:55;15.75;;;6.30;;
54123;SDS011;55741;53.252;5.788;2023-02-28T06:44:21;16.50;;;7.03;;
54123;SDS011;55741;53.252;5.788;2023-02-28T06:46:48;11.13;;;6.63;;
54123;SDS011;55741;53.252;5.788;2023-02-28T06:49:14;12.95;;;8.18;;
54123;SDS011;55741;53.252;5.788;2023-02-28T06:51:42;13.20;;;8.45;;
54123;SDS011;55741;53.252;5.788;2023-02-28T06:54:12;15.18;;;9.40;;
54123;SDS011;55741;53.252;5.788;2023-02-28T06:56:38;13.93;;;8.88;;
54123;SDS011;55741;53.252;5.788;2023-02-28T06:59:04;9.63;;;7.45;;
54123;SDS011;55741;53.252;5.788;2023-02-28T07:01:32;9.30;;;6.53;;
54123;SDS011;55741;53.252;5.788;2023-02-28T07:04:00;6.72;;;5.28;;
54123;SDS011;55741;53.252;5.788;2023-02-28T07:06:36;9.90;;;5.68;;
54123;SDS011;55741;53.252;5.788;2023-02-28T07:09:01;9.23;;;6.03;;
54123;SDS011;55741;53.252;5.788;2023-02-28T07:11:29;7.90;;;6.25;;
54123;SDS011;55741;53.252;5.788;2023-02-28T07:13:55;9.00;;;6.32;;
54123;SDS011;55741;53.252;5.788;2023-02-28T07:16:22;10.70;;;6.50;;
54123;SDS011;55741;53.252;5.788;2023-02-28T07:18:49;8.13;;;6.70;;
54123;SDS011;55741;53.252;5.788;2023-02-28T07:21:17;9.55;;;7.15;;
54123;SDS011;55741;53.252;5.788;2023-02-28T07:23:43;9.02;;;7.18;;
54123;SDS011;55741;53.252;5.788;2023-02-28T07:26:11;8.48;;;6.82;;
54123;SDS011;55741;53.252;5.788;2023-02-28T07:28:42;11.35;;;6.65;;
54123;SDS011;55741;53.252;5.788;2023-02-28T07:31:08;8.32;;;7.05;;
54123;SDS011;55741;53.252;5.788;2023-02-28T07:33:35;9.98;;;7.55;;
54123;SDS011;55741;53.252;5.788;2023-02-28T07:36:04;12.75;;;9.60;;
54123;SDS011;55741;53.252;5.788;2023-02-28T07:38:49;15.75;;;10.13;;
54123;SDS011;55741;53.252;5.788;2023-02-28T07:41:16;12.60;;;10.07;;
54123;SDS011;55741;53.252;5.788;2023-02-28T07:43:47;13.48;;;9.00;;
54123;SDS011;55741;53.252;5.788;2023-02-28T07:46:14;12.68;;;9.75;;
54123;SDS011;55741;53.252;5.788;2023-02-28T07:48:41;12.65;;;9.57;;
54123;SDS011;55741;53.252;5.788;2023-02-28T07:51:07;13.70;;;10.18;;
54123;SDS011;55741;53.252;5.788;2023-02-28T07:53:33;14.38;;;9.65;;
54123;SDS011;55741;53.252;5.788;2023-02-28T07:55:59;14.55;;;9.45;;
54123;SDS011;55741;53.252;5.788;2023-02-28T07:58:27;15.50;;;10.00;;
54123;SDS011;55741;53.252;5.788;2023-02-28T08:00:54;12.57;;;9.95;;
54123;SDS011;55741;53.252;5.788;2023-02-28T08:03:24;12.23;;;10.30;;
54123;SDS011;55741;53.252;5.788;2023-02-28T08:05:50;17.33;;;10.65;;
54123;SDS011;55741;53.252;5.788;2023-02-28T08:08:18;14.43;;;11.23;;
54123;SDS011;55741;53.252;5.788;2023-02-28T08:10:44;15.73;;;11.18;;
54123;SDS011;55741;53.252;5.788;2023-02-28T08:13:10;13.38;;;10.60;;
54123;SDS011;55741;53.252;5.788;2023-02-28T08:15:36;15.32;;;11.48;;
54123;SDS011;55741;53.252;5.788;2023-02-28T08:18:05;14.48;;;11.27;;
54123;SDS011;55741;53.252;5.788;2023-02-28T08:20:31;15.52;;;11.63;;
54123;SDS011;55741;53.252;5.788;2023-02-28T08:22:59;15.82;;;11.60;;
54123;SDS011;55741;53.252;5.788;2023-02-28T08:25:25;17.95;;;12.90;;
54123;SDS011;55741;53.252;5.788;2023-02-28T08:27:51;14.57;;;11.88;;
54123;SDS011;55741;53.252;5.788;2023-02-28T08:30:18;15.52;;;11.63;;
54123;SDS011;55741;53.252;5.788;2023-02-28T08:32:44;15.75;;;12.15;;
54123;SDS011;55741;53.252;5.788;2023-02-28T08:35:15;17.20;;;12.10;;
54123;SDS011;55741;53.252;5.788;2023-02-28T08:37:41;17.15;;;12.35;;
54123;SDS011;55741;53.252;5.788;2023-02-28T08:40:07;15.07;;;11.65;;
54123;SDS011;55741;53.252;5.788;2023-02-28T08:42:34;18.83;;;12.18;;
54123;SDS011;55741;53.252;5.788;2023-02-28T08:45:00;17.40;;;12.93;;
54123;SDS011;55741;53.252;5.788;2023-02-28T08:47:26;16.52;;;11.88;;
54123;SDS011;55741;53.252;5.788;2023-02-28T08:49:53;17.00;;;12.43;;
54123;SDS011;55741;53.252;5.788;2023-02-28T08:52:21;15.23;;;12.15;;
54123;SDS011;55741;53.252;5.788;2023-02-28T08:54:47;14.48;;;11.82;;
54123;SDS011;55741;53.252;5.788;2023-02-28T08:57:13;16.13;;;11.43;;
54123;SDS011;55741;53.252;5.788;2023-02-28T08:59:39;14.07;;;11.07;;
54123;SDS011;55741;53.252;5.788;2023-02-28T09:02:05;18.67;;;12.75;;
54123;SDS011;55741;53.252;5.788;2023-02-28T09:04:33;14.07;;;11.48;;
54123;SDS011;55741;53.252;5.788;2023-02-28T09:06:59;16.15;;;12.18;;
54123;SDS011;55741;53.252;5.788;2023-02-28T09:09:25;16.40;;;11.30;;
54123;SDS011;55741;53.252;5.788;2023-02-28T09:11:51;14.23;;;11.65;;
54123;SDS011;55741;53.252;5.788;2023-02-28T09:14:17;16.10;;;12.57;;
54123;SDS011;55741;53.252;5.788;2023-02-28T09:16:43;15.25;;;11.75;;
54123;SDS011;55741;53.252;5.788;2023-02-28T09:19:10;13.68;;;10.95;;
54123;SDS011;55741;53.252;5.788;2023-02-28T09:21:37;13.60;;;11.40;;
54123;SDS011;55741;53.252;5.788;2023-02-28T09:24:03;15.60;;;12.75;;
54123;SDS011;55741;53.252;5.788;2023-02-28T09:26:29;18.17;;;12.85;;
54123;SDS011;55741;53.252;5.788;2023-02-28T09:28:55;14.75;;;11.75;;
54123;SDS011;55741;53.252;5.788;2023-02-28T09:31:25;16.08;;;12.63;;
54123;SDS011;55741;53.252;5.788;2023-02-28T09:33:54;13.82;;;11.60;;
54123;SDS011;55741;53.252;5.788;2023-02-28T09:36:22;15.25;;;12.23;;
54123;SDS011;55741;53.252;5.788;2023-02-28T09:38:49;15.30;;;12.35;;
54123;SDS011;55741;53.252;5.788;2023-02-28T09:41:21;15.05;;;11.95;;
54123;SDS011;55741;53.252;5.788;2023-02-28T09:43:59;13.75;;;10.77;;
54123;SDS011;55741;53.252;5.788;2023-02-28T09:49:05;13.98;;;11.05;;
54123;SDS011;55741;53.252;5.788;2023-02-28T09:51:43;16.25;;;10.45;;
54123;SDS011;55741;53.252;5.788;2023-02-28T09:54:23;13.85;;;11.60;;
54123;SDS011;55741;53.252;5.788;2023-02-28T09:56:51;15.55;;;10.55;;
54123;SDS011;55741;53.252;5.788;2023-02-28T10:07:33;12.10;;;10.10;;
54123;SDS011;55741;53.252;5.788;2023-02-28T10:10:24;12.98;;;10.35;;
54123;SDS011;55741;53.252;5.788;2023-02-28T10:13:04;12.23;;;9.20;;
54123;SDS011;55741;53.252;5.788;2023-02-28T10:15:45;12.10;;;9.70;;
54123;SDS011;55741;53.252;5.788;2023-02-28T10:18:16;14.13;;;11.05;;
54123;SDS011;55741;53.252;5.788;2023-02-28T10:20:48;12.85;;;9.77;;
54123;SDS011;55741;53.252;5.788;2023-02-28T10:23:20;12.90;;;10.68;;
54123;SDS011;55741;53.252;5.788;2023-02-28T10:26:09;12.45;;;9.30;;
54123;SDS011;55741;53.252;5.788;2023-02-28T10:28:38;11.68;;;8.88;;
54123;SDS011;55741;53.252;5.788;2023-02-28T10:31:04;12.52;;;9.05;;
54123;SDS011;55741;53.252;5.788;2023-02-28T10:33:34;13.40;;;10.13;;
54123;SDS011;55741;53.252;5.788;2023-02-28T10:36:01;10.82;;;8.23;;
54123;SDS011;55741;53.252;5.788;2023-02-28T10:38:32;10.48;;;8.15;;
54123;SDS011;55741;53.252;5.788;2023-02-28T10:41:04;12.73;;;8.20;;
54123;SDS011;55741;53.252;5.788;2023-02-28T10:43:38;12.40;;;8.48;;
54123;SDS011;55741;53.252;5.788;2023-02-28T10:51:10;12.90;;;7.80;;
54123;SDS011;55741;53.252;5.788;2023-02-28T10:56:15;10.52;;;7.78;;
54123;SDS011;55741;53.252;5.788;2023-02-28T10:58:58;13.13;;;7.97;;
54123;SDS011;55741;53.252;5.788;2023-02-28T11:01:33;17.02;;;7.45;;
54123;SDS011;55741;53.252;5.788;2023-02-28T11:04:17;9.35;;;6.43;;
54123;SDS011;55741;53.252;5.788;2023-02-28T11:07:03;10.40;;;7.40;;
54123;SDS011;55741;53.252;5.788;2023-02-28T11:10:05;11.30;;;7.10;;
54123;SDS011;55741;53.252;5.788;2023-02-28T11:12:34;11.02;;;6.75;;
54123;SDS011;55741;53.252;5.788;2023-02-28T11:15:14;9.52;;;6.88;;
54123;SDS011;55741;53.252;5.788;2023-02-28T11:17:54;9.77;;;6.38;;
54123;SDS011;55741;53.252;5.788;2023-02-28T11:20:23;13.55;;;6.15;;
54123;SDS011;55741;53.252;5.788;2023-02-28T11:22:53;9.13;;;6.20;;
54123;SDS011;55741;53.252;5.788;2023-02-28T11:25:36;9.30;;;6.35;;
54123;SDS011;55741;53.252;5.788;2023-02-28T11:28:06;7.85;;;5.20;;
54123;SDS011;55741;53.252;5.788;2023-02-28T11:31:02;10.52;;;6.07;;
54123;SDS011;55741;53.252;5.788;2023-02-28T11:33:37;10.07;;;5.50;;
54123;SDS011;55741;53.252;5.788;2023-02-28T11:38:54;9.02;;;5.30;;
54123;SDS011;55741;53.252;5.788;2023-02-28T11:41:39;8.15;;;5.45;;
54123;SDS011;55741;53.252;5.788;2023-02-28T11:44:33;9.90;;;5.57;;
54123;SDS011;55741;53.252;5.788;2023-02-28T11:57:59;6.82;;;4.70;;
54123;SDS011;55741;53.252;5.788;2023-02-28T12:00:39;8.52;;;4.80;;
54123;SDS011;55741;53.252;5.788;2023-02-28T12:06:32;7.78;;;4.50;;
54123;SDS011;55741;53.252;5.788;2023-02-28T12:25:21;7.13;;;4.40;;
54123;SDS011;55741;53.252;5.788;2023-02-28T12:27:50;8.55;;;5.13;;
54123;SDS011;55741;53.252;5.788;2023-02-28T12:30:22;6.40;;;4.88;;
54123;SDS011;55741;53.252;5.788;2023-02-28T12:33:06;8.68;;;5.85;;
54123;SDS011;55741;53.252;5.788;2023-02-28T12:41:22;8.15;;;4.82;;
54123;SDS011;55741;53.252;5.788;2023-02-28T12:46:34;8.50;;;4.78;;
54123;SDS011;55741;53.252;5.788;2023-02-28T12:49:10;9.27;;;4.78;;
54123;SDS011;55741;53.252;5.788;2023-02-28T12:51:47;8.00;;;5.03;;
54123;SDS011;55741;53.252;5.788;2023-02-28T12:54:33;10.38;;;5.45;;
54123;SDS011;55741;53.252;5.788;2023-02-28T12:57:13;9.02;;;5.32;;
54123;SDS011;55741;53.252;5.788;2023-02-28T12:59:51;8.68;;;5.68;;
54123;SDS011;55741;53.252;5.788;2023-02-28T13:10:40;9.85;;;5.72;;
54123;SDS011;55741;53.252;5.788;2023-02-28T13:13:13;9.63;;;5.68;;
54123;SDS011;55741;53.252;5.788;2023-02-28T13:15:41;8.85;;;5.25;;
54123;SDS011;55741;53.252;5.788;2023-02-28T13:18:43;7.00;;;4.88;;
54123;SDS011;55741;53.252;5.788;2023-02-28T13:26:21;8.98;;;5.10;;
54123;SDS011;55741;53.252;5.788;2023-02-28T13:31:18;10.35;;;6.10;;
54123;SDS011;55741;53.252;5.788;2023-02-28T13:36:24;9.10;;;5.45;;
54123;SDS011;55741;53.252;5.788;2023-02-28T14:00:16;8.50;;;5.75;;
54123;SDS011;55741;53.252;5.788;2023-02-28T14:05:46;9.10;;;6.53;;
54123;SDS011;55741;53.252;5.788;2023-02-28T14:08:15;10.05;;;6.95;;
54123;SDS011;55741;53.252;5.788;2023-02-28T14:11:03;9.35;;;5.47;;
54123;SDS011;55741;53.252;5.788;2023-02-28T14:13:48;10.32;;;6.88;;
54123;SDS011;55741;53.252;5.788;2023-02-28T14:16:24;6.93;;;4.97;;
54123;SDS011;55741;53.252;5.788;2023-02-28T14:21:35;7.75;;;5.35;;
54123;SDS011;55741;53.252;5.788;2023-02-28T14:27:16;9.38;;;5.13;;
54123;SDS011;55741;53.252;5.788;2023-02-28T14:33:14;8.85;;;4.95;;
54123;SDS011;55741;53.252;5.788;2023-02-28T14:38:24;8.88;;;5.32;;
54123;SDS011;55741;53.252;5.788;2023-02-28T14:40:56;9.37;;;5.23;;
54123;SDS011;55741;53.252;5.788;2023-02-28T14:43:26;8.73;;;4.78;;
54123;SDS011;55741;53.252;5.788;2023-02-28T14:45:59;9.13;;;6.40;;
54123;SDS011;55741;53.252;5.788;2023-02-28T14:48:38;9.98;;;5.25;;
54123;SDS011;55741;53.252;5.788;2023-02-28T14:51:04;9.05;;;5.47;;
54123;SDS011;55741;53.252;5.788;2023-02-28T14:53:36;9.13;;;5.10;;
54123;SDS011;55741;53.252;5.788;2023-02-28T14:56:03;9.88;;;5.25;;
54123;SDS011;55741;53.252;5.788;2023-02-28T14:58:30;8.15;;;5.35;;
54123;SDS011;55741;53.252;5.788;2023-02-28T15:01:01;8.27;;;5.13;;
54123;SDS011;55741;53.252;5.788;2023-02-28T15:03:35;7.18;;;4.60;;
54123;SDS011;55741;53.252;5.788;2023-02-28T15:06:04;7.20;;;5.15;;
54123;SDS011;55741;53.252;5.788;2023-02-28T15:08:38;9.68;;;5.38;;
54123;SDS011;55741;53.252;5.788;2023-02-28T15:13:46;7.22;;;6.07;;
54123;SDS011;55741;53.252;5.788;2023-02-28T15:18:50;9.00;;;6.00;;
54123;SDS011;55741;53.252;5.788;2023-02-28T15:21:22;9.10;;;6.45;;
54123;SDS011;55741;53.252;5.788;2023-02-28T15:24:02;7.80;;;6.28;;
54123;SDS011;55741;53.252;5.788;2023-02-28T15:26:34;8.38;;;6.35;;
54123;SDS011;55741;53.252;5.788;2023-02-28T15:29:07;7.40;;;5.72;;
54123;SDS011;55741;53.252;5.788;2023-02-28T15:31:49;8.02;;;6.38;;
54123;SDS011;55741;53.252;5.788;2023-02-28T15:34:33;9.52;;;6.03;;
54123;SDS011;55741;53.252;5.788;2023-02-28T15:39:51;9.68;;;6.13;;
54123;SDS011;55741;53.252;5.788;2023-02-28T15:42:19;12.77;;;6.72;;
54123;SDS011;55741;53.252;5.788;2023-02-28T15:44:47;10.50;;;7.00;;
54123;SDS011;55741;53.252;5.788;2023-02-28T15:50:04;9.60;;;6.97;;
54123;SDS011;55741;53.252;5.788;2023-02-28T15:52:39;8.20;;;6.15;;
54123;SDS011;55741;53.252;5.788;2023-02-28T15:57:38;11.82;;;6.85;;
54123;SDS011;55741;53.252;5.788;2023-02-28T16:00:06;11.70;;;7.18;;
54123;SDS011;55741;53.252;5.788;2023-02-28T16:02:37;8.30;;;6.30;;
54123;SDS011;55741;53.252;5.788;2023-02-28T16:07:40;8.48;;;6.25;;
54123;SDS011;55741;53.252;5.788;2023-02-28T16:10:09;8.00;;;6.10;;
54123;SDS011;55741;53.252;5.788;2023-02-28T16:12:38;9.93;;;6.38;;
54123;SDS011;55741;53.252;5.788;2023-02-28T16:15:06;8.60;;;6.22;;
54123;SDS011;55741;53.252;5.788;2023-02-28T16:17:45;8.13;;;5.95;;
54123;SDS011;55741;53.252;5.788;2023-02-28T16:20:16;9.45;;;6.70;;
54123;SDS011;55741;53.252;5.788;2023-02-28T16:22:50;9.32;;;7.15;;
54123;SDS011;55741;53.252;5.788;2023-02-28T16:25:17;9.90;;;6.63;;
54123;SDS011;55741;53.252;5.788;2023-02-28T16:27:46;11.10;;;6.38;;
54123;SDS011;55741;53.252;5.788;2023-02-28T16:30:21;8.82;;;6.65;;
54123;SDS011;55741;53.252;5.788;2023-02-28T16:32:50;11.10;;;7.07;;
54123;SDS011;55741;53.252;5.788;2023-02-28T16:35:17;10.55;;;6.82;;
54123;SDS011;55741;53.252;5.788;2023-02-28T16:37:44;8.63;;;7.22;;
54123;SDS011;55741;53.252;5.788;2023-02-28T16:40:17;8.77;;;7.35;;
54123;SDS011;55741;53.252;5.788;2023-02-28T16:42:49;9.43;;;7.05;;
54123;SDS011;55741;53.252;5.788;2023-02-28T16:45:23;11.93;;;8.80;;
54123;SDS011;55741;53.252;5.788;2023-02-28T16:47:52;9.15;;;7.43;;
54123;SDS011;55741;53.252;5.788;2023-02-28T16:50:20;10.73;;;7.53;;
54123;SDS011;55741;53.252;5.788;2023-02-28T16:52:50;7.45;;;6.05;;
54123;SDS011;55741;53.252;5.788;2023-02-28T16:55:20;9.32;;;7.32;;
54123;SDS011;55741;53.252;5.788;2023-02-28T16:57:49;15.63;;;8.32;;
54123;SDS011;55741;53.252;5.788;2023-02-28T17:00:21;9.52;;;7.35;;
54123;SDS011;55741;53.252;5.788;2023-02-28T17:02:47;14.05;;;8.10;;
54123;SDS011;55741;53.252;5.788;2023-02-28T17:05:13;11.98;;;8.50;;
54123;SDS011;55741;53.252;5.788;2023-02-28T17:07:40;12.35;;;8.00;;
54123;SDS011;55741;53.252;5.788;2023-02-28T17:10:15;12.57;;;7.95;;
54123;SDS011;55741;53.252;5.788;2023-02-28T17:12:47;11.35;;;8.30;;
54123;SDS011;55741;53.252;5.788;2023-02-28T17:15:16;10.88;;;7.28;;
54123;SDS011;55741;53.252;5.788;2023-02-28T17:17:44;11.82;;;7.97;;
54123;SDS011;55741;53.252;5.788;2023-02-28T17:20:21;12.02;;;8.02;;
54123;SDS011;55741;53.252;5.788;2023-02-28T17:22:48;13.23;;;7.72;;
54123;SDS011;55741;53.252;5.788;2023-02-28T17:25:18;10.70;;;7.93;;
54123;SDS011;55741;53.252;5.788;2023-02-28T17:27:44;11.25;;;7.90;;
54123;SDS011;55741;53.252;5.788;2023-02-28T17:32:47;17.80;;;8.80;;
54123;SDS011;55741;53.252;5.788;2023-02-28T17:35:13;11.25;;;8.57;;
54123;SDS011;55741;53.252;5.788;2023-02-28T17:37:39;10.57;;;8.20;;
54123;SDS011;55741;53.252;5.788;2023-02-28T17:40:06;11.48;;;8.77;;
54123;SDS011;55741;53.252;5.788;2023-02-28T17:42:42;14.13;;;8.63;;
54123;SDS011;55741;53.252;5.788;2023-02-28T17:45:09;12.45;;;8.88;;
54123;SDS011;55741;53.252;5.788;2023-02-28T17:47:36;15.57;;;11.85;;
54123;SDS011;55741;53.252;5.788;2023-02-28T17:50:02;27.10;;;17.33;;
54123;SDS011;55741;53.252;5.788;2023-02-28T17:52:28;45.63;;;27.58;;